Time;durP1;ratioP1;P1;durP2;ratioP2;P2;SDS_P1;SDS_P2;PMS_P1;PMS_P2;Temp;Humidity;BMP_temperature;BMP_pressure;BME280_temperature;BME280_humidity;BME280_pressure;Samples;Min_cycle;Max_cycle;Signal;HPM_P1;HPM_P2
2024/02/28 00:00:31;;;;;;;58.72;26.95;;;;;;;;;;5017914;28;20120;-63
2024/02/28 00:02:57;;;;;;;53.55;25.13;;;;;;;;;;5019896;28;20046;-63
2024/02/28 00:05:23;;;;;;;53.75;26.80;;;;;;;;;;5016872;28;20063;-63
2024/02/28 00:07:50;;;;;;;50.83;24.83;;;;;;;;;;5020186;28;20049;-63
2024/02/28 00:10:16;;;;;;;52.13;25.83;;;;;;;;;;5015539;28;20041;-63
2024/02/28 00:12:42;;;;;;;59.33;27.90;;;;;;;;;;5016034;28;20053;-63
2024/02/28 00:15:10;;;;;;;61.92;26.92;;;;;;;;;;5018700;28;20049;-63
2024/02/28 00:17:40;;;;;;;57.03;26.55;;;;;;;;;;5014410;28;20060;-63
2024/02/28 00:20:07;;;;;;;61.13;26.70;;;;;;;;;;5017598;28;20440;-63
2024/02/28 00:22:33;;;;;;;51.60;25.63;;;;;;;;;;5018749;28;20057;-64
2024/02/28 00:25:01;;;;;;;56.75;26.63;;;;;;;;;;5028011;28;20061;-63
2024/02/28 00:27:27;;;;;;;55.28;26.15;;;;;;;;;;5015229;28;20068;-63
2024/02/28 00:29:53;;;;;;;52.85;25.88;;;;;;;;;;5013731;28;20568;-63
2024/02/28 00:32:19;;;;;;;53.97;27.10;;;;;;;;;;5019489;28;20049;-63
2024/02/28 00:34:45;;;;;;;54.50;26.77;;;;;;;;;;5020990;28;20121;-63
2024/02/28 00:37:12;;;;;;;58.63;27.08;;;;;;;;;;5015925;28;20045;-63
2024/02/28 00:39:38;;;;;;;58.03;27.48;;;;;;;;;;5012032;28;20114;-63
2024/02/28 00:42:04;;;;;;;63.67;27.65;;;;;;;;;;5013845;28;20049;-63
2024/02/28 00:44:30;;;;;;;62.17;28.25;;;;;;;;;;5013537;28;20053;-63
2024/02/28 00:46:56;;;;;;;64.85;28.40;;;;;;;;;;5017015;28;20161;-63
2024/02/28 00:49:23;;;;;;;69.10;29.45;;;;;;;;;;5011482;28;20371;-63
2024/02/28 00:51:49;;;;;;;63.92;28.30;;;;;;;;;;5014361;28;20126;-63
2024/02/28 00:54:15;;;;;;;69.90;28.10;;;;;;;;;;5014596;28;20049;-63
2024/02/28 00:56:41;;;;;;;67.38;29.95;;;;;;;;;;5019673;28;20046;-63
2024/02/28 00:59:10;;;;;;;75.10;27.48;;;;;;;;;;5015374;28;20065;-63
2024/02/28 01:01:37;;;;;;;66.72;29.40;;;;;;;;;;5014830;28;20060;-63
2024/02/28 01:04:03;;;;;;;84.15;30.10;;;;;;;;;;5017357;28;20146;-63
2024/02/28 01:06:29;;;;;;;84.07;28.75;;;;;;;;;;5015800;28;20080;-63
2024/02/28 01:08:55;;;;;;;99.82;31.45;;;;;;;;;;5014515;28;20072;-63
2024/02/28 01:11:21;;;;;;;99.55;33.63;;;;;;;;;;5012793;28;20045;-63
2024/02/28 01:13:47;;;;;;;84.38;30.65;;;;;;;;;;5012760;28;20042;-63
2024/02/28 01:16:14;;;;;;;101.75;31.70;;;;;;;;;;5011941;28;20065;-63
2024/02/28 01:18:40;;;;;;;82.53;30.92;;;;;;;;;;5014879;28;20406;-63
2024/02/28 01:21:06;;;;;;;99.53;31.50;;;;;;;;;;5018015;28;20132;-63
2024/02/28 01:23:32;;;;;;;114.15;32.42;;;;;;;;;;5021701;28;20057;-63
2024/02/28 01:25:59;;;;;;;95.75;31.50;;;;;;;;;;5018543;28;20103;-63
2024/02/28 01:28:25;;;;;;;90.88;31.52;;;;;;;;;;5016006;28;20124;-63
2024/02/28 01:30:51;;;;;;;98.90;32.53;;;;;;;;;;5013961;28;20496;-63
2024/02/28 01:33:18;;;;;;;92.78;33.15;;;;;;;;;;5021280;28;20084;-63
2024/02/28 01:35:44;;;;;;;102.50;31.85;;;;;;;;;;5012823;28;20053;-63
2024/02/28 01:38:10;;;;;;;101.53;32.88;;;;;;;;;;5016752;28;20084;-63
2024/02/28 01:40:36;;;;;;;100.43;33.38;;;;;;;;;;5014457;28;20176;-63
2024/02/28 01:43:04;;;;;;;110.72;34.03;;;;;;;;;;5015042;28;20080;-63
2024/02/28 01:45:30;;;;;;;104.85;34.70;;;;;;;;;;4997180;28;20107;-63
2024/02/28 01:47:56;;;;;;;93.70;34.08;;;;;;;;;;5023033;28;20116;-63
2024/02/28 01:50:22;;;;;;;95.88;34.65;;;;;;;;;;5021775;28;20115;-63
2024/02/28 01:52:49;;;;;;;92.45;33.33;;;;;;;;;;5024136;28;20041;-63
2024/02/28 01:55:15;;;;;;;99.10;34.58;;;;;;;;;;5022121;28;20101;-63
2024/02/28 01:57:41;;;;;;;89.88;33.85;;;;;;;;;;5022394;28;20086;-63
2024/02/28 02:00:08;;;;;;;93.95;35.22;;;;;;;;;;5024620;28;20053;-63
2024/02/28 02:02:34;;;;;;;95.97;35.97;;;;;;;;;;5021048;28;20037;-63
2024/02/28 02:05:00;;;;;;;105.43;36.70;;;;;;;;;;5020241;28;20049;-63
2024/02/28 02:07:27;;;;;;;99.60;35.50;;;;;;;;;;5018176;28;20397;-63
2024/02/28 02:09:53;;;;;;;97.88;35.85;;;;;;;;;;5019961;28;20199;-63
2024/02/28 02:12:19;;;;;;;103.97;36.55;;;;;;;;;;5023688;28;20113;-63
2024/02/28 02:14:48;;;;;;;95.07;36.67;;;;;;;;;;5019036;28;20058;-63
2024/02/28 02:17:14;;;;;;;100.07;37.90;;;;;;;;;;5022813;28;20417;-63
2024/02/28 02:19:40;;;;;;;96.07;36.70;;;;;;;;;;5022461;28;20041;-63
2024/02/28 02:22:08;;;;;;;98.03;38.03;;;;;;;;;;5024218;28;20050;-63
2024/02/28 02:24:35;;;;;;;99.20;37.83;;;;;;;;;;5022374;28;20182;-63
2024/02/28 02:27:01;;;;;;;87.15;35.30;;;;;;;;;;5024007;28;20053;-63
2024/02/28 02:29:51;;;;;;;91.18;37.33;;;;;;;;;;5019344;28;20098;-63
2024/02/28 02:32:17;;;;;;;79.20;34.58;;;;;;;;;;5020727;28;20049;-63
2024/02/28 02:34:44;;;;;;;85.63;36.47;;;;;;;;;;5018293;28;20053;-63
2024/02/28 02:37:10;;;;;;;83.07;35.10;;;;;;;;;;5021577;28;20041;-63
2024/02/28 02:39:36;;;;;;;86.35;33.78;;;;;;;;;;5006417;28;20053;-63
2024/02/28 02:42:02;;;;;;;83.90;35.15;;;;;;;;;;5022455;28;20057;-63
2024/02/28 02:44:29;;;;;;;86.32;36.42;;;;;;;;;;5021206;28;20136;-63
2024/02/28 02:46:55;;;;;;;91.13;36.80;;;;;;;;;;5025952;28;20132;-63
2024/02/28 02:49:21;;;;;;;87.60;36.30;;;;;;;;;;5023439;28;20072;-63
2024/02/28 02:51:47;;;;;;;92.35;38.95;;;;;;;;;;5020557;28;20089;-63
2024/02/28 02:54:13;;;;;;;90.60;36.53;;;;;;;;;;5023077;28;20057;-63
2024/02/28 02:56:43;;;;;;;91.53;38.08;;;;;;;;;;5024116;28;20371;-63
2024/02/28 02:59:11;;;;;;;91.90;37.42;;;;;;;;;;5014964;28;20045;-63
2024/02/28 03:01:37;;;;;;;92.55;38.58;;;;;;;;;;5013281;28;20905;-63
2024/02/28 03:04:04;;;;;;;94.22;38.03;;;;;;;;;;5015887;28;20045;-63
2024/02/28 03:06:30;;;;;;;92.70;36.05;;;;;;;;;;5019399;28;20050;-63
2024/02/28 03:08:56;;;;;;;98.38;40.53;;;;;;;;;;5021253;28;20466;-63
2024/02/28 03:11:22;;;;;;;92.18;37.97;;;;;;;;;;5023233;28;20056;-63
2024/02/28 03:13:48;;;;;;;98.25;38.88;;;;;;;;;;5021866;28;20065;-63
2024/02/28 03:16:15;;;;;;;93.93;38.38;;;;;;;;;;5023696;28;20622;-63
2024/02/28 03:18:41;;;;;;;94.68;39.88;;;;;;;;;;5023544;28;20041;-63
2024/02/28 03:21:07;;;;;;;94.22;37.78;;;;;;;;;;5021752;28;20386;-63
2024/02/28 03:23:35;;;;;;;100.18;39.30;;;;;;;;;;5020592;28;20047;-63
2024/02/28 03:26:03;;;;;;;104.03;39.90;;;;;;;;;;5019794;28;20053;-63
2024/02/28 03:28:29;;;;;;;95.18;38.22;;;;;;;;;;5024525;28;20470;-63
2024/02/28 03:30:56;;;;;;;90.72;37.92;;;;;;;;;;5020881;28;20083;-63
2024/02/28 03:33:22;;;;;;;89.50;36.65;;;;;;;;;;5020629;28;20160;-63
2024/02/28 03:35:48;;;;;;;97.03;38.25;;;;;;;;;;5021305;28;21560;-63
2024/02/28 03:38:14;;;;;;;103.25;39.15;;;;;;;;;;5022575;28;20383;-63
2024/02/28 03:40:40;;;;;;;103.43;39.15;;;;;;;;;;5018579;28;21330;-63
2024/02/28 03:43:06;;;;;;;96.15;37.45;;;;;;;;;;5022936;28;20038;-63
2024/02/28 03:45:38;;;;;;;101.15;40.15;;;;;;;;;;5020971;28;20053;-63
2024/02/28 03:48:04;;;;;;;99.43;39.05;;;;;;;;;;5022032;28;20168;-63
2024/02/28 03:50:31;;;;;;;98.85;39.35;;;;;;;;;;5023772;28;20463;-63
2024/02/28 03:52:57;;;;;;;96.32;37.78;;;;;;;;;;5021994;28;20129;-63
2024/02/28 03:55:23;;;;;;;100.32;37.80;;;;;;;;;;5019404;28;20049;-63
2024/02/28 03:57:51;;;;;;;87.47;36.60;;;;;;;;;;5019763;28;20101;-63
2024/02/28 04:00:17;;;;;;;91.88;37.75;;;;;;;;;;5020005;28;20052;-63
2024/02/28 04:02:44;;;;;;;99.25;38.47;;;;;;;;;;5020689;28;20089;-63
2024/02/28 04:05:10;;;;;;;90.50;38.33;;;;;;;;;;5020123;28;20184;-63
2024/02/28 04:07:36;;;;;;;94.53;38.03;;;;;;;;;;5019072;28;20041;-63
2024/02/28 04:10:05;;;;;;;90.03;36.92;;;;;;;;;;5016963;28;20128;-63
2024/02/28 04:12:31;;;;;;;90.15;37.70;;;;;;;;;;5020452;28;20175;-63
2024/02/28 04:14:57;;;;;;;94.50;37.60;;;;;;;;;;5022196;28;20049;-63
2024/02/28 04:17:23;;;;;;;92.88;38.30;;;;;;;;;;5021201;28;20057;-63
2024/02/28 04:19:50;;;;;;;91.43;35.80;;;;;;;;;;5018592;28;20117;-63
2024/02/28 04:22:16;;;;;;;91.20;36.85;;;;;;;;;;5019081;28;20134;-63
2024/02/28 04:24:42;;;;;;;90.72;37.00;;;;;;;;;;5022453;28;20049;-63
2024/02/28 04:27:11;;;;;;;98.57;38.10;;;;;;;;;;5021981;28;20045;-63
2024/02/28 04:29:37;;;;;;;90.43;35.90;;;;;;;;;;5019236;28;20054;-63
2024/02/28 04:32:03;;;;;;;93.60;36.97;;;;;;;;;;5018900;28;20053;-63
2024/02/28 04:34:29;;;;;;;85.72;36.97;;;;;;;;;;5019843;28;20048;-63
2024/02/28 04:36:55;;;;;;;91.82;37.17;;;;;;;;;;5018110;28;20401;-63
2024/02/28 04:39:22;;;;;;;87.68;35.78;;;;;;;;;;5018406;28;20413;-63
2024/02/28 04:41:48;;;;;;;92.13;36.83;;;;;;;;;;5015558;28;20088;-63
2024/02/28 04:44:14;;;;;;;92.13;36.42;;;;;;;;;;5018415;28;20132;-63
2024/02/28 04:46:40;;;;;;;94.38;36.70;;;;;;;;;;5020781;28;20072;-63
2024/02/28 04:49:08;;;;;;;98.03;37.80;;;;;;;;;;5020296;28;20045;-63
2024/02/28 04:51:34;;;;;;;91.38;36.92;;;;;;;;;;5018111;28;20065;-63
2024/02/28 04:54:00;;;;;;;93.00;36.88;;;;;;;;;;5020864;28;20041;-63
2024/02/28 04:56:26;;;;;;;94.85;38.17;;;;;;;;;;5017899;28;20149;-63
2024/02/28 04:58:53;;;;;;;95.85;37.20;;;;;;;;;;5014879;28;20049;-63
2024/02/28 05:01:19;;;;;;;104.80;37.95;;;;;;;;;;5016753;28;20102;-63
2024/02/28 05:03:45;;;;;;;91.65;37.83;;;;;;;;;;5010413;28;20056;-63
2024/02/28 05:06:11;;;;;;;97.05;38.67;;;;;;;;;;5014423;28;20481;-63
2024/02/28 05:08:38;;;;;;;96.05;39.05;;;;;;;;;;5018882;28;20045;-63
2024/02/28 05:11:04;;;;;;;113.85;41.90;;;;;;;;;;5017313;28;20076;-63
2024/02/28 05:13:30;;;;;;;113.72;40.20;;;;;;;;;;5020828;28;20060;-63
2024/02/28 05:15:57;;;;;;;108.93;40.05;;;;;;;;;;5005160;28;20056;-63
2024/02/28 05:18:23;;;;;;;119.55;42.42;;;;;;;;;;5024037;28;20691;-63
2024/02/28 05:20:49;;;;;;;122.22;42.95;;;;;;;;;;5025848;28;20126;-63
2024/02/28 05:23:15;;;;;;;117.28;41.22;;;;;;;;;;5024106;28;20103;-63
2024/02/28 05:25:41;;;;;;;127.20;43.17;;;;;;;;;;5024571;28;20048;-64
2024/02/28 05:28:07;;;;;;;120.68;41.08;;;;;;;;;;5009658;28;20079;-63
2024/02/28 05:30:34;;;;;;;126.00;43.05;;;;;;;;;;5042237;28;20041;-63
2024/02/28 05:33:00;;;;;;;131.77;45.15;;;;;;;;;;5043596;28;20372;-63
2024/02/28 05:35:26;;;;;;;129.40;45.28;;;;;;;;;;5043893;28;20058;-63
2024/02/28 05:37:55;;;;;;;135.23;45.83;;;;;;;;;;5023804;28;20048;-63
2024/02/28 05:40:21;;;;;;;135.25;45.90;;;;;;;;;;5041457;28;20098;-63
2024/02/28 05:42:47;;;;;;;132.00;47.67;;;;;;;;;;5041222;28;20055;-63
2024/02/28 05:45:13;;;;;;;119.63;44.15;;;;;;;;;;5045741;28;20084;-63
2024/02/28 05:47:40;;;;;;;116.88;44.20;;;;;;;;;;5022961;28;20049;-63
2024/02/28 05:50:06;;;;;;;128.60;47.65;;;;;;;;;;5022044;28;20110;-63
2024/02/28 05:52:32;;;;;;;136.50;47.03;;;;;;;;;;5040369;28;20397;-63
2024/02/28 05:54:58;;;;;;;138.70;46.80;;;;;;;;;;5040713;28;20044;-63
2024/02/28 05:57:24;;;;;;;124.40;46.30;;;;;;;;;;5025475;28;20069;-63
2024/02/28 05:59:51;;;;;;;148.10;49.65;;;;;;;;;;5024351;28;20175;-63
2024/02/28 06:02:17;;;;;;;140.27;47.05;;;;;;;;;;5020501;28;20048;-63
2024/02/28 06:04:43;;;;;;;131.25;46.42;;;;;;;;;;5022306;28;20106;-63
2024/02/28 06:07:09;;;;;;;139.80;47.20;;;;;;;;;;5022633;28;20388;-63
2024/02/28 06:09:35;;;;;;;142.48;46.88;;;;;;;;;;5022533;28;20132;-63
2024/02/28 06:12:02;;;;;;;143.38;50.38;;;;;;;;;;5020831;28;20121;-63
2024/02/28 06:14:28;;;;;;;137.93;50.03;;;;;;;;;;5022329;28;20064;-63
2024/02/28 06:16:54;;;;;;;148.05;50.65;;;;;;;;;;5020912;28;20045;-63
2024/02/28 06:19:20;;;;;;;148.88;50.25;;;;;;;;;;5040643;28;20048;-63
2024/02/28 06:21:46;;;;;;;141.68;48.67;;;;;;;;;;5039651;28;20102;-63
2024/02/28 06:24:12;;;;;;;147.27;49.17;;;;;;;;;;5041805;28;20072;-63
2024/02/28 06:26:39;;;;;;;158.75;52.95;;;;;;;;;;5038470;28;20049;-63
2024/02/28 06:29:06;;;;;;;148.77;51.10;;;;;;;;;;5025308;28;20150;-63
2024/02/28 06:31:32;;;;;;;153.23;52.05;;;;;;;;;;5019168;28;21140;-63
2024/02/28 06:33:58;;;;;;;157.00;51.95;;;;;;;;;;5023671;28;20485;-63
2024/02/28 06:36:26;;;;;;;154.63;52.58;;;;;;;;;;5018636;28;20041;-63
2024/02/28 06:38:52;;;;;;;149.18;51.03;;;;;;;;;;5018441;28;20042;-63
2024/02/28 06:41:18;;;;;;;152.05;52.33;;;;;;;;;;5018492;28;20053;-63
2024/02/28 06:43:45;;;;;;;139.85;52.90;;;;;;;;;;5018112;28;20088;-63
2024/02/28 06:46:12;;;;;;;140.85;50.90;;;;;;;;;;5021836;28;20136;-63
2024/02/28 06:48:38;;;;;;;139.40;49.45;;;;;;;;;;5019160;28;20064;-63
2024/02/28 06:51:04;;;;;;;130.50;50.75;;;;;;;;;;5014716;28;20045;-63
2024/02/28 06:53:30;;;;;;;136.82;50.50;;;;;;;;;;5018854;28;20140;-63
2024/02/28 06:55:57;;;;;;;130.15;50.90;;;;;;;;;;5017710;28;20533;-63
2024/02/28 06:58:25;;;;;;;133.05;49.97;;;;;;;;;;5020790;28;20523;-63
2024/02/28 07:00:51;;;;;;;134.80;51.65;;;;;;;;;;5023531;28;20571;-63
2024/02/28 07:03:17;;;;;;;133.73;49.92;;;;;;;;;;5025479;28;20064;-63
2024/02/28 07:05:44;;;;;;;124.10;50.63;;;;;;;;;;5026372;28;20049;-64
2024/02/28 07:08:11;;;;;;;112.28;48.58;;;;;;;;;;5023305;28;20041;-63
2024/02/28 07:10:39;;;;;;;120.95;48.45;;;;;;;;;;5024111;28;20098;-62
2024/02/28 07:13:05;;;;;;;123.13;49.33;;;;;;;;;;5022083;28;20049;-65
2024/02/28 07:15:31;;;;;;;122.53;48.53;;;;;;;;;;5021030;28;20065;-62
2024/02/28 07:17:57;;;;;;;119.82;47.65;;;;;;;;;;5015879;28;20072;-62
2024/02/28 07:20:24;;;;;;;115.07;48.63;;;;;;;;;;5025341;28;20053;-62
2024/02/28 07:22:50;;;;;;;124.05;47.70;;;;;;;;;;5020789;28;20060;-62
2024/02/28 07:25:16;;;;;;;112.03;47.95;;;;;;;;;;5024217;28;20458;-62
2024/02/28 07:27:43;;;;;;;124.45;49.40;;;;;;;;;;5024663;28;20056;-62
2024/02/28 07:30:09;;;;;;;114.03;46.35;;;;;;;;;;5023506;28;20057;-63
2024/02/28 07:32:36;;;;;;;114.50;47.67;;;;;;;;;;5021093;28;20033;-62
2024/02/28 07:35:03;;;;;;;106.57;46.47;;;;;;;;;;5021322;28;20142;-63
2024/02/28 07:37:29;;;;;;;116.95;48.22;;;;;;;;;;5023252;28;20045;-63
2024/02/28 07:39:55;;;;;;;115.00;45.85;;;;;;;;;;5022596;28;20384;-63
2024/02/28 07:42:22;;;;;;;114.95;47.63;;;;;;;;;;5024417;28;20106;-63
2024/02/28 07:44:53;;;;;;;113.20;46.83;;;;;;;;;;5021250;28;20049;-63
2024/02/28 07:47:19;;;;;;;101.10;45.85;;;;;;;;;;5024630;28;20187;-63
2024/02/28 07:49:45;;;;;;;101.95;45.72;;;;;;;;;;5025651;28;20429;-63
2024/02/28 07:52:12;;;;;;;113.88;47.53;;;;;;;;;;5021698;28;20089;-64
2024/02/28 07:54:38;;;;;;;109.53;46.85;;;;;;;;;;5017760;28;20490;-64
2024/02/28 07:57:04;;;;;;;107.57;46.80;;;;;;;;;;5018527;28;20037;-64
2024/02/28 07:59:30;;;;;;;112.10;48.70;;;;;;;;;;5018349;28;20049;-63
2024/02/28 08:01:56;;;;;;;112.00;48.22;;;;;;;;;;5011643;28;20060;-63
2024/02/28 08:04:23;;;;;;;104.38;48.05;;;;;;;;;;5015108;28;20376;-63
2024/02/28 08:06:49;;;;;;;102.88;45.20;;;;;;;;;;5017783;28;20052;-63
2024/02/28 08:09:15;;;;;;;97.47;44.78;;;;;;;;;;5017330;28;20504;-63
2024/02/28 08:11:41;;;;;;;110.68;46.80;;;;;;;;;;5018061;28;20527;-63
2024/02/28 08:14:08;;;;;;;106.55;48.22;;;;;;;;;;5018891;28;20049;-63
2024/02/28 08:16:35;;;;;;;99.28;44.83;;;;;;;;;;5022053;28;20041;-63
2024/02/28 08:19:01;;;;;;;100.82;44.83;;;;;;;;;;5022825;28;20400;-63
2024/02/28 08:21:27;;;;;;;102.40;46.80;;;;;;;;;;5020426;28;20124;-63
2024/02/28 08:23:54;;;;;;;93.93;44.70;;;;;;;;;;5024222;28;20049;-63
2024/02/28 08:26:20;;;;;;;115.90;47.70;;;;;;;;;;5022907;28;20072;-63
2024/02/28 08:28:46;;;;;;;99.75;44.00;;;;;;;;;;5021632;28;20175;-63
2024/02/28 08:31:12;;;;;;;104.80;45.63;;;;;;;;;;5023469;28;20045;-63
2024/02/28 08:33:38;;;;;;;96.47;45.67;;;;;;;;;;5022927;28;20053;-62
2024/02/28 08:36:05;;;;;;;95.20;44.13;;;;;;;;;;5020891;28;20053;-70
2024/02/28 08:38:31;;;;;;;105.20;44.95;;;;;;;;;;5023092;28;20119;-63
2024/02/28 08:40:57;;;;;;;100.93;44.88;;;;;;;;;;5024147;28;20056;-64
2024/02/28 08:43:23;;;;;;;104.03;47.50;;;;;;;;;;5022056;28;20048;-64
2024/02/28 08:45:51;;;;;;;115.78;49.72;;;;;;;;;;5024149;28;20049;-63
2024/02/28 08:48:17;;;;;;;105.75;46.83;;;;;;;;;;5022792;28;20053;-63
2024/02/28 08:50:43;;;;;;;110.80;47.85;;;;;;;;;;5021429;28;20053;-63
2024/02/28 08:53:10;;;;;;;112.03;48.28;;;;;;;;;;5019108;28;20116;-63
2024/02/28 08:55:36;;;;;;;106.60;45.78;;;;;;;;;;5025001;28;20056;-63
2024/02/28 08:58:02;;;;;;;124.30;46.72;;;;;;;;;;5022774;28;20046;-63
2024/02/28 09:00:28;;;;;;;116.95;48.10;;;;;;;;;;5024422;28;20041;-63
2024/02/28 09:02:54;;;;;;;116.32;46.00;;;;;;;;;;5021118;28;20123;-63
2024/02/28 09:05:20;;;;;;;120.85;47.78;;;;;;;;;;5022103;28;20489;-63
2024/02/28 09:07:51;;;;;;;121.07;47.90;;;;;;;;;;5023868;28;20084;-66
2024/02/28 09:10:23;;;;;;;113.60;47.20;;;;;;;;;;5018243;28;20042;-66
2024/02/28 09:12:49;;;;;;;113.10;47.05;;;;;;;;;;5020494;28;20140;-67
2024/02/28 09:15:15;;;;;;;122.30;48.58;;;;;;;;;;5022517;28;20060;-69
2024/02/28 09:17:42;;;;;;;112.57;46.92;;;;;;;;;;5025533;28;20092;-67
2024/02/28 09:20:08;;;;;;;114.13;48.40;;;;;;;;;;5024880;28;20042;-68
2024/02/28 09:22:35;;;;;;;112.90;47.75;;;;;;;;;;5027237;28;20049;-67
2024/02/28 09:25:04;;;;;;;121.03;47.28;;;;;;;;;;5024144;28;20443;-68
2024/02/28 09:27:30;;;;;;;116.68;48.25;;;;;;;;;;5022654;28;20454;-68
2024/02/28 09:29:57;;;;;;;113.90;48.40;;;;;;;;;;4999783;28;20479;-68
2024/02/28 09:32:23;;;;;;;108.72;47.67;;;;;;;;;;5017019;28;20045;-67
2024/02/28 09:34:49;;;;;;;123.88;48.60;;;;;;;;;;5002428;28;20111;-68
2024/02/28 09:37:16;;;;;;;115.72;49.40;;;;;;;;;;4995373;28;20405;-67
2024/02/28 09:39:43;;;;;;;121.55;49.88;;;;;;;;;;5012777;28;20046;-68
2024/02/28 09:42:10;;;;;;;113.60;50.10;;;;;;;;;;5013352;28;20100;-68
2024/02/28 09:44:38;;;;;;;112.60;49.28;;;;;;;;;;5013011;28;20042;-67
2024/02/28 09:47:05;;;;;;;116.60;50.13;;;;;;;;;;5018999;28;20086;-66
2024/02/28 09:49:32;;;;;;;116.90;48.35;;;;;;;;;;5021986;28;20038;-66
2024/02/28 09:51:59;;;;;;;127.32;49.65;;;;;;;;;;5006521;28;20057;-66
2024/02/28 09:54:26;;;;;;;115.30;51.83;;;;;;;;;;5006001;28;20041;-66
2024/02/28 09:56:53;;;;;;;131.27;50.70;;;;;;;;;;5005855;28;20130;-66
2024/02/28 09:59:19;;;;;;;116.28;49.30;;;;;;;;;;5010615;28;20515;-67
2024/02/28 10:01:48;;;;;;;127.45;52.78;;;;;;;;;;5025675;28;20112;-66
2024/02/28 10:04:14;;;;;;;128.88;54.15;;;;;;;;;;5021698;28;20157;-67
2024/02/28 10:06:41;;;;;;;119.22;51.65;;;;;;;;;;5005344;28;20155;-66
2024/02/28 10:09:07;;;;;;;115.90;51.65;;;;;;;;;;5006376;28;20060;-67
2024/02/28 10:11:35;;;;;;;119.82;52.00;;;;;;;;;;5008529;28;20103;-66
2024/02/28 10:14:02;;;;;;;121.03;51.40;;;;;;;;;;5025345;28;20037;-67
2024/02/28 10:16:28;;;;;;;125.80;53.40;;;;;;;;;;5003625;28;20149;-67
2024/02/28 10:18:55;;;;;;;118.25;53.85;;;;;;;;;;5024714;28;20080;-67
2024/02/28 10:21:21;;;;;;;114.03;51.78;;;;;;;;;;5025778;28;20053;-67
2024/02/28 10:23:47;;;;;;;116.13;52.80;;;;;;;;;;5022617;28;20414;-67
2024/02/28 10:26:13;;;;;;;111.50;52.00;;;;;;;;;;5026018;28;20048;-66
2024/02/28 10:28:40;;;;;;;117.20;52.08;;;;;;;;;;5010623;28;20452;-66
2024/02/28 10:31:07;;;;;;;117.95;53.58;;;;;;;;;;5022356;28;20049;-66
2024/02/28 10:33:35;;;;;;;115.15;51.63;;;;;;;;;;5023965;28;20041;-66
2024/02/28 10:36:03;;;;;;;107.40;50.58;;;;;;;;;;5025761;28;20134;-66
2024/02/28 10:38:31;;;;;;;106.97;50.38;;;;;;;;;;5027612;28;20136;-67
2024/02/28 10:40:57;;;;;;;110.30;50.72;;;;;;;;;;5025523;28;20524;-66
2024/02/28 10:43:24;;;;;;;114.38;52.50;;;;;;;;;;5027238;28;20046;-67
2024/02/28 10:45:51;;;;;;;103.50;50.67;;;;;;;;;;5027953;28;20063;-67
2024/02/28 10:48:18;;;;;;;104.65;49.03;;;;;;;;;;5029031;28;20428;-67
2024/02/28 10:50:45;;;;;;;114.15;51.72;;;;;;;;;;5027738;28;20378;-67
2024/02/28 10:53:15;;;;;;;113.40;52.90;;;;;;;;;;5027408;28;20378;-67
2024/02/28 10:55:43;;;;;;;104.00;50.00;;;;;;;;;;5027819;28;20060;-67
2024/02/28 10:58:11;;;;;;;105.25;47.85;;;;;;;;;;5028753;28;20037;-67
2024/02/28 11:00:41;;;;;;;97.60;48.50;;;;;;;;;;5046165;28;20464;-67
2024/02/28 11:03:08;;;;;;;95.38;47.15;;;;;;;;;;5026403;28;20053;-67
2024/02/28 11:05:38;;;;;;;99.47;49.17;;;;;;;;;;5029283;28;20090;-67
2024/02/28 11:08:06;;;;;;;95.00;47.30;;;;;;;;;;5031170;28;20057;-67
2024/02/28 11:10:34;;;;;;;94.03;46.75;;;;;;;;;;5024580;28;20041;-66
2024/02/28 11:13:00;;;;;;;92.47;44.85;;;;;;;;;;5030210;28;20052;-67
2024/02/28 11:15:27;;;;;;;80.07;42.03;;;;;;;;;;5031204;28;20071;-66
2024/02/28 11:17:54;;;;;;;84.72;43.33;;;;;;;;;;5026961;28;20056;-66
2024/02/28 11:20:22;;;;;;;81.55;42.13;;;;;;;;;;5028034;28;20045;-67
2024/02/28 11:22:49;;;;;;;60.25;34.03;;;;;;;;;;5028375;28;20456;-68
2024/02/28 11:25:15;;;;;;;63.78;36.53;;;;;;;;;;5022900;28;20151;-68
2024/02/28 11:27:46;;;;;;;78.20;39.13;;;;;;;;;;5025417;28;20076;-66
2024/02/28 11:30:13;;;;;;;74.78;39.60;;;;;;;;;;5025805;28;20068;-66
2024/02/28 11:32:39;;;;;;;75.90;41.78;;;;;;;;;;5022804;28;20401;-66
2024/02/28 11:35:06;;;;;;;74.45;39.50;;;;;;;;;;5022595;28;20061;-66
2024/02/28 11:37:32;;;;;;;73.13;38.60;;;;;;;;;;5022594;28;20041;-66
2024/02/28 11:39:59;;;;;;;77.13;38.53;;;;;;;;;;5024102;28;20091;-66
2024/02/28 11:42:25;;;;;;;76.72;39.95;;;;;;;;;;5021837;28;20120;-66
2024/02/28 11:44:55;;;;;;;75.70;37.65;;;;;;;;;;5027169;28;20155;-66
2024/02/28 11:47:23;;;;;;;74.03;42.50;;;;;;;;;;5018980;28;20128;-66
2024/02/28 11:49:49;;;;;;;68.57;37.10;;;;;;;;;;5022155;28;20390;-67
2024/02/28 11:52:15;;;;;;;83.50;41.42;;;;;;;;;;5025458;28;20053;-67
2024/02/28 11:54:41;;;;;;;67.43;37.63;;;;;;;;;;5019966;28;20060;-68
2024/02/28 11:57:08;;;;;;;58.67;35.53;;;;;;;;;;5021425;28;20186;-67
2024/02/28 11:59:34;;;;;;;55.83;34.03;;;;;;;;;;5021023;28;20049;-67
2024/02/28 12:02:00;;;;;;;66.10;37.70;;;;;;;;;;5014421;28;20053;-67
2024/02/28 12:04:27;;;;;;;71.70;37.88;;;;;;;;;;4998496;28;20359;-68
2024/02/28 12:06:53;;;;;;;74.93;39.08;;;;;;;;;;5015248;28;20053;-67
2024/02/28 12:09:19;;;;;;;66.68;39.20;;;;;;;;;;5019626;28;20071;-67
2024/02/28 12:11:46;;;;;;;65.00;39.10;;;;;;;;;;5017792;28;20393;-67
2024/02/28 12:14:13;;;;;;;64.70;38.13;;;;;;;;;;5017690;28;20233;-67
2024/02/28 12:16:40;;;;;;;61.50;37.05;;;;;;;;;;5013747;28;20041;-67
2024/02/28 12:19:10;;;;;;;68.18;36.47;;;;;;;;;;5017039;28;20168;-67
2024/02/28 12:21:38;;;;;;;68.25;38.17;;;;;;;;;;5017620;28;20053;-67
2024/02/28 12:24:05;;;;;;;65.85;38.10;;;;;;;;;;5025523;28;20045;-66
2024/02/28 12:26:31;;;;;;;64.03;37.92;;;;;;;;;;5022907;28;20072;-66
2024/02/28 12:28:58;;;;;;;62.30;35.67;;;;;;;;;;5023475;28;20041;-67
2024/02/28 12:31:24;;;;;;;61.58;36.03;;;;;;;;;;5026149;28;20049;-67
2024/02/28 12:33:50;;;;;;;56.80;33.25;;;;;;;;;;5026351;28;20048;-66
2024/02/28 12:36:16;;;;;;;56.25;32.63;;;;;;;;;;5025397;28;20052;-67
2024/02/28 12:38:42;;;;;;;53.60;31.90;;;;;;;;;;5024889;28;20112;-67
2024/02/28 12:41:09;;;;;;;53.13;32.92;;;;;;;;;;5026232;28;20469;-66
2024/02/28 12:43:35;;;;;;;52.55;32.45;;;;;;;;;;5023312;28;20488;-66
2024/02/28 12:46:01;;;;;;;54.95;35.00;;;;;;;;;;5023405;28;20132;-66
2024/02/28 12:48:27;;;;;;;52.05;34.22;;;;;;;;;;5026434;28;20106;-67
2024/02/28 12:50:54;;;;;;;54.58;32.55;;;;;;;;;;5042706;28;20057;-65
2024/02/28 12:53:20;;;;;;;49.25;31.80;;;;;;;;;;5025641;28;20069;-65
2024/02/28 12:55:46;;;;;;;50.13;31.80;;;;;;;;;;5003469;28;20046;-66
2024/02/28 12:58:12;;;;;;;47.35;32.15;;;;;;;;;;5026371;28;20038;-66
2024/02/28 13:00:38;;;;;;;54.97;32.95;;;;;;;;;;5025337;28;20079;-66
2024/02/28 13:03:06;;;;;;;51.35;33.33;;;;;;;;;;5026963;28;20128;-66
2024/02/28 13:05:32;;;;;;;51.78;33.55;;;;;;;;;;5027559;28;20370;-66
2024/02/28 13:07:59;;;;;;;55.03;32.88;;;;;;;;;;5020203;28;20405;-66
2024/02/28 13:10:25;;;;;;;48.25;32.92;;;;;;;;;;5019481;28;20120;-66
2024/02/28 13:12:52;;;;;;;51.10;31.30;;;;;;;;;;5021428;28;20452;-66
2024/02/28 13:15:18;;;;;;;49.97;32.55;;;;;;;;;;5021354;28;20061;-66
2024/02/28 13:17:46;;;;;;;51.05;30.90;;;;;;;;;;5022354;28;20085;-66
2024/02/28 13:20:12;;;;;;;44.75;29.35;;;;;;;;;;5028257;28;20050;-66
2024/02/28 13:22:39;;;;;;;43.67;28.58;;;;;;;;;;5027717;28;20045;-66
2024/02/28 13:25:05;;;;;;;40.05;27.83;;;;;;;;;;5025218;28;20142;-66
2024/02/28 13:27:31;;;;;;;40.13;27.42;;;;;;;;;;5021872;28;20511;-67
2024/02/28 13:29:57;;;;;;;40.33;27.00;;;;;;;;;;5023333;28;20045;-66
2024/02/28 13:32:24;;;;;;;40.03;25.83;;;;;;;;;;5024758;28;20060;-66
2024/02/28 13:34:50;;;;;;;37.53;25.20;;;;;;;;;;5028112;28;20469;-66
2024/02/28 13:37:16;;;;;;;38.08;26.58;;;;;;;;;;5026433;28;20033;-66
2024/02/28 13:39:42;;;;;;;39.03;26.65;;;;;;;;;;5025988;28;20053;-66
2024/02/28 13:42:09;;;;;;;37.03;26.38;;;;;;;;;;5029626;28;20481;-66
2024/02/28 13:44:37;;;;;;;38.58;27.38;;;;;;;;;;5029256;28;20096;-68
2024/02/28 13:47:04;;;;;;;36.40;24.83;;;;;;;;;;5020114;28;20120;-66
2024/02/28 13:49:30;;;;;;;40.08;25.35;;;;;;;;;;5025686;28;20045;-66
2024/02/28 13:51:57;;;;;;;39.03;25.23;;;;;;;;;;5026856;28;20350;-67
2024/02/28 13:54:23;;;;;;;34.17;24.13;;;;;;;;;;5028316;28;20068;-66
2024/02/28 13:56:50;;;;;;;37.33;25.83;;;;;;;;;;5026944;28;20215;-66
2024/02/28 13:59:16;;;;;;;37.75;25.42;;;;;;;;;;5021852;28;20049;-66
2024/02/28 14:01:42;;;;;;;37.80;25.20;;;;;;;;;;5021935;28;20102;-66
2024/02/28 14:04:09;;;;;;;37.67;25.30;;;;;;;;;;5023723;28;20175;-66
2024/02/28 14:06:35;;;;;;;35.00;23.73;;;;;;;;;;5023990;28;20090;-66